Darstellungsparameter: Aktuell verwendete Einstellungen:
Skalierung der Graphiken ... ?
xyx+y,   Skalierungsfaktor:      Skalierung: Modus: x, Faktor: 1
Darstellungszeitraum ... ?
Vom - - bis: - -   Zeitraum: 27.07.2019 - 29.07.2019
Min/Max/Avg-Anzeige ... ?
Zeige MMA aktuell
Zeige MMA Monat
Zeige MMA alles
Zeige --A aktuell
Zeige --A Monat
Zeige --A alles
Keine MMA-Anzeige
MMA:
Keine MMA-Graphiken
MMA-Basis: 27.07.2019 - 29.07.2019
Quicknavigation für Darstellung... ?
Tage:      1T, 2T, 3T, 5T -1T -2T -3T -5T +1T +2T +3T +5T
Wochen: 1W, 2W, 3W -1W -2W -3W +1W +2W +3W
Monate: 1M, 3M, 6M -1M -3M -6M +1M +3M +6M
Jahre:    1J, 3J, 5J, 10J -1J -3J -5J -10J +1J +3J +5J +10J
Nutze für die Darstellung ... ?
Originaldaten oder Mittelwerte auf ...
Stundenbasis Tagesbasis Wochenbasis
Monatsbasis Jahresbasis      Datenbasis: Original-Daten
Darstellen als:
Statistik (Auto) Statistik J:M      Darstellung:
Zur Graphik,    zurück zur Übersicht aller Sensoren.
 
Tabellarische Datenbersicht: ?
 
Sensor: Nr:Datum:Temp:Feuchte:Taupunkt:
Aussen-T/F 1 27-07-2019 00:00:00 23.6 C 69 % 17.58 C
2 27-07-2019 00:05:00 23.4 C 69 % 17.39 C
3 27-07-2019 00:10:00 23.3 C 69 % 17.29 C
4 27-07-2019 00:15:00 23.3 C 70 % 17.52 C
5 27-07-2019 00:20:00 23.2 C 70 % 17.42 C
6 27-07-2019 00:25:00 23.2 C 70 % 17.42 C
7 27-07-2019 00:30:00 23.1 C 70 % 17.33 C
8 27-07-2019 00:35:00 23.1 C 71 % 17.55 C
9 27-07-2019 00:40:00 23 C 71 % 17.46 C
10 27-07-2019 00:45:00 22.9 C 71 % 17.36 C
11 27-07-2019 00:50:00 22.9 C 71 % 17.36 C
12 27-07-2019 00:55:00 22.8 C 72 % 17.49 C
13 27-07-2019 01:00:00 22.8 C 72 % 17.49 C
14 27-07-2019 01:05:00 22.7 C 72 % 17.39 C
15 27-07-2019 01:10:00 22.7 C 73 % 17.61 C
16 27-07-2019 01:15:00 22.6 C 73 % 17.51 C
17 27-07-2019 01:20:00 22.7 C 74 % 17.83 C
18 27-07-2019 01:25:00 22.7 C 73 % 17.61 C
19 27-07-2019 01:30:00 22.7 C 73 % 17.61 C
20 27-07-2019 01:35:00 22.7 C 73 % 17.61 C
21 27-07-2019 01:40:00 22.7 C 74 % 17.83 C
22 27-07-2019 01:45:00 22.6 C 74 % 17.73 C
23 27-07-2019 01:50:00 22.4 C 74 % 17.54 C
24 27-07-2019 01:55:00 22.3 C 74 % 17.44 C
25 27-07-2019 02:00:00 22.3 C 74 % 17.44 C
Sensor: Nr:Datum:Temp:Feuchte:Taupunkt:
Aussen-T/F 26 27-07-2019 02:05:00 22.3 C 73 % 17.23 C
27 27-07-2019 02:10:00 22.3 C 73 % 17.23 C
28 27-07-2019 02:15:00 22.3 C 75 % 17.65 C
29 27-07-2019 02:20:00 22.4 C 75 % 17.75 C
30 27-07-2019 02:25:00 22.4 C 76 % 17.96 C
31 27-07-2019 02:30:00 22.4 C 76 % 17.96 C
32 27-07-2019 02:35:00 22.4 C 76 % 17.96 C
33 27-07-2019 02:40:00 22.3 C 76 % 17.86 C
34 27-07-2019 02:45:00 22.3 C 76 % 17.86 C
35 27-07-2019 02:50:00 22.3 C 76 % 17.86 C
36 27-07-2019 02:55:00 22.3 C 76 % 17.86 C
37 27-07-2019 03:00:00 22.3 C 76 % 17.86 C
38 27-07-2019 03:05:00 22.3 C 76 % 17.86 C
39 27-07-2019 03:10:00 22.3 C 74 % 17.44 C
40 27-07-2019 03:15:00 22.4 C 74 % 17.54 C
41 27-07-2019 03:20:00 22.5 C 73 % 17.42 C
42 27-07-2019 03:25:00 22.6 C 72 % 17.3 C
43 27-07-2019 03:30:00 22.6 C 71 % 17.07 C
44 27-07-2019 03:35:00 22.8 C 69 % 16.82 C
45 27-07-2019 03:40:00 23.2 C 75 % 18.52 C
46 27-07-2019 03:45:00 23.1 C 78 % 19.05 C
47 27-07-2019 03:50:00 22.7 C 79 % 18.87 C
48 27-07-2019 03:55:00 22.3 C 80 % 18.68 C
49 27-07-2019 04:00:00 21.9 C 83 % 18.88 C
50 27-07-2019 04:05:00 21.7 C 84 % 18.88 C
Sensor: Nr:Datum:Temp:Feuchte:Taupunkt:
Aussen-T/F 51 27-07-2019 04:10:00 21.4 C 85 % 18.77 C
52 27-07-2019 04:15:00 21.1 C 85 % 18.48 C
53 27-07-2019 04:20:00 20.9 C 86 % 18.47 C
54 27-07-2019 04:25:00 20.8 C 87 % 18.56 C
55 27-07-2019 04:30:00 20.7 C 87 % 18.46 C
56 27-07-2019 04:35:00 20.6 C 87 % 18.36 C
57 27-07-2019 04:40:00 20.5 C 88 % 18.44 C
58 27-07-2019 04:45:00 20.4 C 88 % 18.34 C
59 27-07-2019 04:50:00 20.4 C 88 % 18.34 C
60 27-07-2019 04:55:00 20.4 C 89 % 18.53 C
61 27-07-2019 05:00:00 20.4 C 88 % 18.34 C
62 27-07-2019 05:05:00 20.4 C 88 % 18.34 C
63 27-07-2019 05:10:00 20.3 C 89 % 18.43 C
64 27-07-2019 05:15:00 20.3 C 89 % 18.43 C
65 27-07-2019 05:20:00 20.3 C 89 % 18.43 C
66 27-07-2019 05:25:00 20.3 C 89 % 18.43 C
67 27-07-2019 05:30:00 20.2 C 89 % 18.33 C
68 27-07-2019 05:35:00 20.3 C 89 % 18.43 C
69 27-07-2019 05:40:00 20.2 C 89 % 18.33 C
70 27-07-2019 05:45:00 20.2 C 89 % 18.33 C
71 27-07-2019 05:50:00 20.2 C 89 % 18.33 C
72 27-07-2019 05:55:00 20.2 C 88 % 18.15 C
73 27-07-2019 06:00:00 20.2 C 88 % 18.15 C
74 27-07-2019 06:05:00 20.3 C 89 % 18.43 C
75 27-07-2019 06:10:00 20.3 C 88 % 18.25 C
Sensor: Nr:Datum:Temp:Feuchte:Taupunkt:
Aussen-T/F 76 27-07-2019 06:15:00 20.3 C 89 % 18.43 C
77 27-07-2019 06:20:00 20.3 C 88 % 18.25 C
78 27-07-2019 06:25:00 20.4 C 89 % 18.53 C
79 27-07-2019 06:30:00 20.6 C 89 % 18.72 C
80 27-07-2019 06:35:00 20.7 C 89 % 18.82 C
81 27-07-2019 06:40:00 20.7 C 88 % 18.64 C
82 27-07-2019 06:45:00 20.8 C 88 % 18.74 C
83 27-07-2019 06:50:00 20.8 C 89 % 18.92 C
84 27-07-2019 06:55:00 20.9 C 89 % 19.02 C
85 27-07-2019 07:00:00 20.9 C 89 % 19.02 C
86 27-07-2019 07:05:00 21 C 89 % 19.12 C
87 27-07-2019 07:10:00 20.9 C 88 % 18.84 C
88 27-07-2019 07:15:00 21 C 89 % 19.12 C
89 27-07-2019 07:20:00 21.1 C 88 % 19.03 C
90 27-07-2019 07:25:00 21.2 C 88 % 19.13 C
91 27-07-2019 07:30:00 21.3 C 89 % 19.41 C
92 27-07-2019 07:35:00 21.4 C 89 % 19.51 C
93 27-07-2019 07:40:00 21.4 C 88 % 19.33 C
94 27-07-2019 07:45:00 21.5 C 88 % 19.43 C
95 27-07-2019 07:50:00 21.6 C 87 % 19.34 C
96 27-07-2019 07:55:00 21.7 C 86 % 19.25 C
97 27-07-2019 08:00:00 21.8 C 86 % 19.35 C
98 27-07-2019 08:05:00 21.9 C 86 % 19.45 C
99 27-07-2019 08:10:00 22.1 C 86 % 19.65 C
100 27-07-2019 08:15:00 22.1 C 84 % 19.27 C
Sensor: Nr:Datum:Temp:Feuchte:Taupunkt:
Aussen-T/F 101 27-07-2019 08:20:00 22.2 C 83 % 19.17 C
102 27-07-2019 08:25:00 22.3 C 82 % 19.08 C
103 27-07-2019 08:30:00 22.5 C 81 % 19.08 C
104 27-07-2019 08:35:00 22.8 C 80 % 19.17 C
105 27-07-2019 08:40:00 23 C 78 % 18.96 C
106 27-07-2019 08:45:00 23.2 C 78 % 19.15 C
107 27-07-2019 08:50:00 23.4 C 77 % 19.14 C
108 27-07-2019 08:55:00 23.6 C 76 % 19.12 C
109 27-07-2019 09:00:00 23.8 C 76 % 19.31 C
110 27-07-2019 09:05:00 24.1 C 76 % 19.6 C
111 27-07-2019 09:10:00 24.3 C 76 % 19.8 C
112 27-07-2019 09:15:00 24.4 C 74 % 19.46 C
113 27-07-2019 09:20:00 24.6 C 73 % 19.44 C
114 27-07-2019 09:25:00 24.8 C 73 % 19.63 C
115 27-07-2019 09:30:00 24.9 C 73 % 19.72 C
116 27-07-2019 09:35:00 25.1 C 73 % 19.92 C
117 27-07-2019 09:40:00 25.1 C 72 % 19.69 C
118 27-07-2019 09:45:00 25.2 C 72 % 19.79 C
119 27-07-2019 09:50:00 25.2 C 72 % 19.79 C
120 27-07-2019 09:55:00 25.2 C 72 % 19.79 C
121 27-07-2019 10:00:00 25.2 C 72 % 19.79 C
122 27-07-2019 10:05:00 25.3 C 71 % 19.66 C
123 27-07-2019 10:10:00 25.3 C 71 % 19.66 C
124 27-07-2019 10:15:00 25.3 C 80 % 21.6 C
125 27-07-2019 10:20:00 25 C 82 % 21.71 C
Sensor: Nr:Datum:Temp:Feuchte:Taupunkt:
Aussen-T/F 126 27-07-2019 10:25:00 24.7 C 84 % 21.81 C
127 27-07-2019 10:30:00 24.4 C 85 % 21.71 C
128 27-07-2019 10:35:00 24.2 C 86 % 21.71 C
129 27-07-2019 10:40:00 24.1 C 87 % 21.8 C
130 27-07-2019 10:45:00 24.1 C 88 % 21.99 C
131 27-07-2019 10:50:00 24.1 C 87 % 21.8 C
132 27-07-2019 10:55:00 24 C 87 % 21.7 C
133 27-07-2019 11:00:00 24 C 88 % 21.89 C
134 27-07-2019 11:05:00 24.1 C 88 % 21.99 C
135 27-07-2019 11:10:00 24.1 C 88 % 21.99 C
136 27-07-2019 11:15:00 24.1 C 88 % 21.99 C
137 27-07-2019 11:20:00 24.2 C 88 % 22.08 C
138 27-07-2019 11:25:00 24.2 C 88 % 22.08 C
139 27-07-2019 11:30:00 24.2 C 87 % 21.9 C
140 27-07-2019 11:35:00 24 C 85 % 21.32 C
141 27-07-2019 11:40:00 23.9 C 85 % 21.22 C
142 27-07-2019 11:45:00 23.7 C 85 % 21.03 C
143 27-07-2019 11:50:00 23.5 C 84 % 20.64 C
144 27-07-2019 11:55:00 23.3 C 85 % 20.63 C
145 27-07-2019 12:00:00 23.2 C 85 % 20.54 C
146 27-07-2019 12:05:00 23.2 C 87 % 20.91 C
147 27-07-2019 12:10:00 23.2 C 88 % 21.1 C
148 27-07-2019 12:15:00 23.2 C 88 % 21.1 C
149 27-07-2019 12:20:00 23.2 C 86 % 20.73 C
150 27-07-2019 12:25:00 23.3 C 85 % 20.63 C
Sensor: Nr:Datum:Temp:Feuchte:Taupunkt:
Aussen-T/F 151 27-07-2019 12:30:00 23.5 C 84 % 20.64 C
152 27-07-2019 12:35:00 23.8 C 81 % 20.34 C
153 27-07-2019 12:40:00 24.1 C 80 % 20.43 C
154 27-07-2019 12:45:00 24.4 C 82 % 21.12 C
155 27-07-2019 12:50:00 24.8 C 78 % 20.7 C
156 27-07-2019 12:55:00 25.1 C 78 % 20.99 C
157 27-07-2019 13:00:00 25.3 C 75 % 20.55 C
158 27-07-2019 13:05:00 25.5 C 76 % 20.95 C
159 27-07-2019 13:10:00 25.7 C 74 % 20.71 C
160 27-07-2019 13:15:00 26 C 75 % 21.22 C
161 27-07-2019 13:20:00 26.2 C 74 % 21.2 C
162 27-07-2019 13:25:00 26.2 C 74 % 21.2 C
163 27-07-2019 13:30:00 26.1 C 75 % 21.32 C
164 27-07-2019 13:35:00 26.2 C 75 % 21.41 C
165 27-07-2019 13:40:00 26.2 C 74 % 21.2 C
166 27-07-2019 13:45:00 26.2 C 72 % 20.75 C
167 27-07-2019 13:50:00 26.2 C 70 % 20.29 C
168 27-07-2019 13:55:00 26.2 C 72 % 20.75 C
169 27-07-2019 14:00:00 26.2 C 69 % 20.06 C
170 27-07-2019 14:05:00 26.1 C 70 % 20.2 C
171 27-07-2019 14:10:00 25.9 C 70 % 20.01 C
172 27-07-2019 14:15:00 25.9 C 68 % 19.54 C
173 27-07-2019 14:20:00 25.8 C 70 % 19.91 C
174 27-07-2019 14:25:00 25.7 C 69 % 19.58 C
175 27-07-2019 14:30:00 25.6 C 71 % 19.95 C
Sensor: Nr:Datum:Temp:Feuchte:Taupunkt:
Aussen-T/F 176 27-07-2019 14:35:00 25.5 C 71 % 19.85 C
177 27-07-2019 14:40:00 25.5 C 73 % 20.3 C
178 27-07-2019 14:45:00 25.5 C 73 % 20.3 C
179 27-07-2019 14:50:00 25.5 C 75 % 20.74 C
180 27-07-2019 14:55:00 25.5 C 74 % 20.52 C
181 27-07-2019 15:00:00 25.3 C 74 % 20.33 C
182 27-07-2019 15:05:00 25.1 C 74 % 20.14 C
183 27-07-2019 15:10:00 24.8 C 74 % 19.85 C
184 27-07-2019 15:15:00 24.7 C 75 % 19.97 C
185 27-07-2019 15:20:00 24.7 C 75 % 19.97 C
186 27-07-2019 15:25:00 24.8 C 75 % 20.06 C
187 27-07-2019 15:30:00 24.8 C 74 % 19.85 C
188 27-07-2019 15:35:00 25 C 74 % 20.04 C
189 27-07-2019 15:40:00 25.1 C 74 % 20.14 C
190 27-07-2019 15:45:00 25.2 C 73 % 20.01 C
191 27-07-2019 15:50:00 25.4 C 73 % 20.21 C
192 27-07-2019 15:55:00 25.6 C 74 % 20.62 C
193 27-07-2019 16:00:00 25.8 C 72 % 20.37 C
194 27-07-2019 16:05:00 26.1 C 70 % 20.2 C
195 27-07-2019 16:10:00 26.2 C 68 % 19.82 C
196 27-07-2019 16:15:00 26.2 C 67 % 19.59 C
197 27-07-2019 16:20:00 26.2 C 68 % 19.82 C
198 27-07-2019 16:25:00 26.3 C 68 % 19.92 C
199 27-07-2019 16:30:00 26.3 C 67 % 19.68 C
200 27-07-2019 16:35:00 26.2 C 67 % 19.59 C
Sensor: Nr:Datum:Temp:Feuchte:Taupunkt:
Aussen-T/F 201 27-07-2019 16:40:00 25.9 C 68 % 19.54 C
202 27-07-2019 16:45:00 25.7 C 67 % 19.11 C
203 27-07-2019 16:50:00 25.5 C 69 % 19.39 C
204 27-07-2019 16:55:00 25.2 C 71 % 19.56 C
205 27-07-2019 17:00:00 24.9 C 73 % 19.72 C
206 27-07-2019 17:05:00 24.6 C 74 % 19.66 C
207 27-07-2019 17:10:00 24.5 C 76 % 19.99 C
208 27-07-2019 17:15:00 24.5 C 77 % 20.2 C
209 27-07-2019 17:20:00 24.5 C 77 % 20.2 C
210 27-07-2019 17:25:00 24.5 C 77 % 20.2 C
211 27-07-2019 17:30:00 24.4 C 76 % 19.89 C
212 27-07-2019 17:35:00 24.4 C 76 % 19.89 C
213 27-07-2019 17:40:00 24.4 C 77 % 20.1 C
214 27-07-2019 17:45:00 24.4 C 76 % 19.89 C
215 27-07-2019 17:50:00 24.4 C 76 % 19.89 C
216 27-07-2019 17:55:00 24.4 C 76 % 19.89 C
217 27-07-2019 18:00:00 24.4 C 77 % 20.1 C
218 27-07-2019 18:05:00 24.4 C 77 % 20.1 C
219 27-07-2019 18:10:00 24.4 C 76 % 19.89 C
220 27-07-2019 18:15:00 24.6 C 77 % 20.3 C
221 27-07-2019 18:20:00 24.8 C 76 % 20.28 C
222 27-07-2019 18:25:00 25.1 C 75 % 20.35 C
223 27-07-2019 18:30:00 25.4 C 75 % 20.64 C
224 27-07-2019 18:35:00 25.3 C 75 % 20.55 C
225 27-07-2019 18:40:00 25.3 C 75 % 20.55 C
Sensor: Nr:Datum:Temp:Feuchte:Taupunkt:
Aussen-T/F 226 27-07-2019 18:45:00 25.2 C 75 % 20.45 C
227 27-07-2019 18:50:00 25.1 C 75 % 20.35 C
228 27-07-2019 18:55:00 24.9 C 76 % 20.38 C
229 27-07-2019 19:00:00 24.7 C 77 % 20.39 C
230 27-07-2019 19:05:00 24.5 C 77 % 20.2 C
231 27-07-2019 19:10:00 24.3 C 76 % 19.8 C
232 27-07-2019 19:15:00 24.1 C 77 % 19.81 C
233 27-07-2019 19:20:00 23.9 C 79 % 20.03 C
234 27-07-2019 19:25:00 23.8 C 81 % 20.34 C
235 27-07-2019 19:30:00 23.7 C 82 % 20.44 C
236 27-07-2019 19:35:00 23.6 C 83 % 20.54 C
237 27-07-2019 19:40:00 23.4 C 84 % 20.54 C
238 27-07-2019 19:45:00 23.4 C 84 % 20.54 C
239 27-07-2019 19:50:00 23.4 C 85 % 20.73 C
240 27-07-2019 19:55:00 23.3 C 84 % 20.44 C
241 27-07-2019 20:00:00 23.2 C 84 % 20.34 C
242 27-07-2019 20:05:00 23.1 C 85 % 20.44 C
243 27-07-2019 20:10:00 23.1 C 85 % 20.44 C
244 27-07-2019 20:15:00 23 C 85 % 20.34 C
245 27-07-2019 20:20:00 23 C 85 % 20.34 C
246 27-07-2019 20:25:00 22.9 C 85 % 20.24 C
247 27-07-2019 20:30:00 22.8 C 85 % 20.14 C
248 27-07-2019 20:35:00 22.8 C 85 % 20.14 C
249 27-07-2019 20:40:00 22.8 C 85 % 20.14 C
250 27-07-2019 20:45:00 22.7 C 85 % 20.05 C
Sensor: Nr:Datum:Temp:Feuchte:Taupunkt:
Aussen-T/F 251 27-07-2019 20:50:00 22.6 C 85 % 19.95 C
252 27-07-2019 20:55:00 22.6 C 85 % 19.95 C
253 27-07-2019 21:00:00 22.4 C 85 % 19.75 C
254 27-07-2019 21:05:00 22.4 C 85 % 19.75 C
255 27-07-2019 21:10:00 22.3 C 85 % 19.65 C
256 27-07-2019 21:15:00 22.3 C 85 % 19.65 C
257 27-07-2019 21:20:00 22.2 C 86 % 19.75 C
258 27-07-2019 21:25:00 22.1 C 86 % 19.65 C
259 27-07-2019 21:30:00 22.1 C 86 % 19.65 C
260 27-07-2019 21:35:00 21.9 C 86 % 19.45 C
261 27-07-2019 21:40:00 21.9 C 86 % 19.45 C
262 27-07-2019 21:45:00 21.8 C 86 % 19.35 C
263 27-07-2019 21:50:00 21.8 C 86 % 19.35 C
264 27-07-2019 21:55:00 21.7 C 86 % 19.25 C
265 27-07-2019 22:00:00 21.7 C 86 % 19.25 C
266 27-07-2019 22:05:00 21.6 C 87 % 19.34 C
267 27-07-2019 22:10:00 21.6 C 87 % 19.34 C
268 27-07-2019 22:15:00 21.6 C 87 % 19.34 C
269 27-07-2019 22:20:00 21.5 C 87 % 19.24 C
270 27-07-2019 22:25:00 21.4 C 87 % 19.15 C
271 27-07-2019 22:30:00 21.4 C 87 % 19.15 C
272 27-07-2019 22:35:00 21.4 C 87 % 19.15 C
273 27-07-2019 22:40:00 21.3 C 87 % 19.05 C
274 27-07-2019 22:45:00 21.3 C 88 % 19.23 C
275 27-07-2019 22:50:00 21.3 C 88 % 19.23 C
Sensor: Nr:Datum:Temp:Feuchte:Taupunkt:
Aussen-T/F 276 27-07-2019 22:55:00 21.3 C 88 % 19.23 C
277 27-07-2019 23:00:00 21.3 C 88 % 19.23 C
278 27-07-2019 23:05:00 21.2 C 88 % 19.13 C
279 27-07-2019 23:10:00 21.2 C 88 % 19.13 C
280 27-07-2019 23:15:00 21.2 C 89 % 19.31 C
281 27-07-2019 23:20:00 21.2 C 89 % 19.31 C
282 27-07-2019 23:25:00 21.2 C 89 % 19.31 C
283 27-07-2019 23:30:00 21.1 C 89 % 19.22 C
284 27-07-2019 23:35:00 21.1 C 89 % 19.22 C
285 27-07-2019 23:40:00 21.1 C 89 % 19.22 C
286 27-07-2019 23:45:00 21.1 C 89 % 19.22 C
287 27-07-2019 23:50:00 21 C 89 % 19.12 C
288 27-07-2019 23:55:00 21 C 89 % 19.12 C
289 28-07-2019 00:00:00 20.9 C 89 % 19.02 C
290 28-07-2019 00:05:00 20.9 C 90 % 19.2 C
291 28-07-2019 00:10:00 20.9 C 90 % 19.2 C
292 28-07-2019 00:15:00 20.9 C 90 % 19.2 C
293 28-07-2019 00:20:00 20.8 C 90 % 19.1 C
294 28-07-2019 00:25:00 20.8 C 90 % 19.1 C
295 28-07-2019 00:30:00 20.8 C 90 % 19.1 C
296 28-07-2019 00:35:00 20.8 C 90 % 19.1 C
297 28-07-2019 00:40:00 20.8 C 90 % 19.1 C
298 28-07-2019 00:45:00 20.8 C 90 % 19.1 C
299 28-07-2019 00:50:00 20.8 C 90 % 19.1 C
300 28-07-2019 00:55:00 20.8 C 90 % 19.1 C
Sensor: Nr:Datum:Temp:Feuchte:Taupunkt:
Aussen-T/F 301 28-07-2019 01:00:00 20.8 C 90 % 19.1 C
302 28-07-2019 01:05:00 20.7 C 90 % 19 C
303 28-07-2019 01:10:00 20.7 C 90 % 19 C
304 28-07-2019 01:15:00 20.7 C 90 % 19 C
305 28-07-2019 01:20:00 20.7 C 90 % 19 C
306 28-07-2019 01:25:00 20.7 C 90 % 19 C
307 28-07-2019 01:30:00 20.7 C 90 % 19 C
308 28-07-2019 01:35:00 20.7 C 90 % 19 C
309 28-07-2019 01:40:00 20.7 C 90 % 19 C
310 28-07-2019 01:45:00 20.7 C 90 % 19 C
311 28-07-2019 01:50:00 20.7 C 90 % 19 C
312 28-07-2019 01:55:00 20.7 C 90 % 19 C
313 28-07-2019 02:00:00 20.7 C 90 % 19 C
314 28-07-2019 02:05:00 20.7 C 90 % 19 C
315 28-07-2019 02:10:00 20.7 C 90 % 19 C
316 28-07-2019 02:15:00 20.7 C 90 % 19 C
317 28-07-2019 02:20:00 20.7 C 90 % 19 C
318 28-07-2019 02:25:00 20.7 C 90 % 19 C
319 28-07-2019 02:30:00 20.7 C 90 % 19 C
320 28-07-2019 02:35:00 20.7 C 90 % 19 C
321 28-07-2019 02:40:00 20.7 C 90 % 19 C
322 28-07-2019 02:45:00 20.7 C 90 % 19 C
323 28-07-2019 02:50:00 20.7 C 90 % 19 C
324 28-07-2019 02:55:00 20.7 C 90 % 19 C
325 28-07-2019 03:00:00 20.7 C 90 % 19 C
Sensor: Nr:Datum:Temp:Feuchte:Taupunkt:
Aussen-T/F 326 28-07-2019 03:05:00 20.7 C 90 % 19 C
327 28-07-2019 03:10:00 20.7 C 90 % 19 C
328 28-07-2019 03:15:00 20.7 C 90 % 19 C
329 28-07-2019 03:20:00 20.7 C 90 % 19 C
330 28-07-2019 03:25:00 20.7 C 90 % 19 C
331 28-07-2019 03:30:00 20.7 C 90 % 19 C
332 28-07-2019 03:35:00 20.7 C 90 % 19 C
333 28-07-2019 03:40:00 20.7 C 90 % 19 C
334 28-07-2019 03:45:00 20.7 C 90 % 19 C
335 28-07-2019 03:50:00 20.6 C 90 % 18.9 C
336 28-07-2019 03:55:00 20.6 C 90 % 18.9 C
337 28-07-2019 04:00:00 20.7 C 90 % 19 C
338 28-07-2019 04:05:00 20.6 C 90 % 18.9 C
339 28-07-2019 04:10:00 20.6 C 91 % 19.08 C
340 28-07-2019 04:15:00 20.6 C 91 % 19.08 C
341 28-07-2019 04:20:00 20.6 C 91 % 19.08 C
342 28-07-2019 04:25:00 20.6 C 91 % 19.08 C
343 28-07-2019 04:30:00 20.6 C 91 % 19.08 C
344 28-07-2019 04:35:00 20.6 C 91 % 19.08 C
345 28-07-2019 04:40:00 20.6 C 91 % 19.08 C
346 28-07-2019 04:45:00 20.6 C 91 % 19.08 C
347 28-07-2019 04:50:00 20.6 C 91 % 19.08 C
348 28-07-2019 04:55:00 20.6 C 91 % 19.08 C
349 28-07-2019 05:00:00 20.6 C 91 % 19.08 C
350 28-07-2019 05:05:00 20.6 C 91 % 19.08 C
Sensor: Nr:Datum:Temp:Feuchte:Taupunkt:
Aussen-T/F 351 28-07-2019 05:10:00 20.6 C 91 % 19.08 C
352 28-07-2019 05:15:00 20.6 C 91 % 19.08 C
353 28-07-2019 05:20:00 20.6 C 91 % 19.08 C
354 28-07-2019 05:25:00 20.6 C 91 % 19.08 C
355 28-07-2019 05:30:00 20.5 C 91 % 18.98 C
356 28-07-2019 05:35:00 20.5 C 91 % 18.98 C
357 28-07-2019 05:40:00 20.5 C 91 % 18.98 C
358 28-07-2019 05:45:00 20.5 C 91 % 18.98 C
359 28-07-2019 05:50:00 20.5 C 91 % 18.98 C
360 28-07-2019 05:55:00 20.5 C 91 % 18.98 C
361 28-07-2019 06:00:00 20.5 C 91 % 18.98 C
362 28-07-2019 06:05:00 20.5 C 91 % 18.98 C
363 28-07-2019 06:10:00 20.5 C 91 % 18.98 C
364 28-07-2019 06:15:00 20.5 C 91 % 18.98 C
365 28-07-2019 06:20:00 20.5 C 91 % 18.98 C
366 28-07-2019 06:25:00 20.5 C 91 % 18.98 C
367 28-07-2019 06:30:00 20.5 C 91 % 18.98 C
368 28-07-2019 06:35:00 20.6 C 91 % 19.08 C
369 28-07-2019 06:40:00 20.6 C 91 % 19.08 C
370 28-07-2019 06:45:00 20.6 C 91 % 19.08 C
371 28-07-2019 06:50:00 20.6 C 91 % 19.08 C
372 28-07-2019 06:55:00 20.6 C 91 % 19.08 C
373 28-07-2019 07:00:00 20.6 C 91 % 19.08 C
374 28-07-2019 07:05:00 20.7 C 91 % 19.18 C
375 28-07-2019 07:10:00 20.7 C 91 % 19.18 C
Sensor: Nr:Datum:Temp:Feuchte:Taupunkt:
Aussen-T/F 376 28-07-2019 07:15:00 20.7 C 90 % 19 C
377 28-07-2019 07:20:00 20.7 C 90 % 19 C
378 28-07-2019 07:25:00 20.7 C 90 % 19 C
379 28-07-2019 07:30:00 20.7 C 90 % 19 C
380 28-07-2019 07:35:00 20.7 C 90 % 19 C
381 28-07-2019 07:40:00 20.7 C 90 % 19 C
382 28-07-2019 07:45:00 20.7 C 89 % 18.82 C
383 28-07-2019 07:50:00 20.7 C 89 % 18.82 C
384 28-07-2019 07:55:00 20.7 C 89 % 18.82 C
385 28-07-2019 08:00:00 20.7 C 89 % 18.82 C
386 28-07-2019 08:05:00 20.7 C 89 % 18.82 C
387 28-07-2019 08:10:00 20.8 C 89 % 18.92 C
388 28-07-2019 08:15:00 20.8 C 89 % 18.92 C
389 28-07-2019 08:20:00 20.7 C 89 % 18.82 C
390 28-07-2019 08:25:00 20.7 C 89 % 18.82 C
391 28-07-2019 08:30:00 20.7 C 89 % 18.82 C
392 28-07-2019 08:35:00 20.7 C 89 % 18.82 C
393 28-07-2019 08:40:00 20.7 C 89 % 18.82 C
394 28-07-2019 08:45:00 20.7 C 89 % 18.82 C
395 28-07-2019 08:50:00 20.7 C 89 % 18.82 C
396 28-07-2019 08:55:00 20.7 C 90 % 19 C
397 28-07-2019 09:00:00 20.6 C 90 % 18.9 C
398 28-07-2019 09:05:00 20.6 C 90 % 18.9 C
399 28-07-2019 09:10:00 20.6 C 90 % 18.9 C
400 28-07-2019 09:15:00 20.6 C 90 % 18.9 C
Sensor: Nr:Datum:Temp:Feuchte:Taupunkt:
Aussen-T/F 401 28-07-2019 09:20:00 20.5 C 90 % 18.8 C
402 28-07-2019 09:25:00 20.4 C 90 % 18.7 C
403 28-07-2019 09:30:00 20.4 C 90 % 18.7 C
404 28-07-2019 09:35:00 20.3 C 90 % 18.61 C
405 28-07-2019 09:40:00 20.3 C 91 % 18.78 C
406 28-07-2019 09:45:00 20.3 C 91 % 18.78 C
407 28-07-2019 09:50:00 20.3 C 91 % 18.78 C
408 28-07-2019 09:55:00 20.2 C 91 % 18.68 C
409 28-07-2019 10:00:00 20.2 C 91 % 18.68 C
410 28-07-2019 10:05:00 20.2 C 91 % 18.68 C
411 28-07-2019 10:10:00 20.2 C 91 % 18.68 C
412 28-07-2019 10:15:00 20.2 C 91 % 18.68 C
413 28-07-2019 10:20:00 20.1 C 91 % 18.58 C
414 28-07-2019 10:25:00 20.1 C 92 % 18.76 C
415 28-07-2019 10:30:00 19.9 C 92 % 18.56 C
416 28-07-2019 10:35:00 19.9 C 92 % 18.56 C
417 28-07-2019 10:40:00 19.9 C 92 % 18.56 C
418 28-07-2019 10:45:00 19.9 C 93 % 18.73 C
419 28-07-2019 10:50:00 19.8 C 93 % 18.63 C
420 28-07-2019 10:55:00 19.9 C 93 % 18.73 C
421 28-07-2019 11:00:00 19.8 C 93 % 18.63 C
422 28-07-2019 11:05:00 19.8 C 93 % 18.63 C
423 28-07-2019 11:10:00 19.8 C 93 % 18.63 C
424 28-07-2019 11:15:00 19.8 C 93 % 18.63 C
425 28-07-2019 11:20:00 19.9 C 93 % 18.73 C
Sensor: Nr:Datum:Temp:Feuchte:Taupunkt:
Aussen-T/F 426 28-07-2019 11:25:00 19.9 C 93 % 18.73 C
427 28-07-2019 11:30:00 20.1 C 92 % 18.76 C
428 28-07-2019 11:35:00 20.2 C 92 % 18.86 C
429 28-07-2019 11:40:00 20.3 C 91 % 18.78 C
430 28-07-2019 11:45:00 20.4 C 90 % 18.7 C
431 28-07-2019 11:50:00 20.4 C 90 % 18.7 C
432 28-07-2019 11:55:00 20.6 C 89 % 18.72 C
433 28-07-2019 12:00:00 20.6 C 89 % 18.72 C
434 28-07-2019 12:05:00 20.5 C 89 % 18.62 C
435 28-07-2019 12:10:00 20.5 C 89 % 18.62 C
436 28-07-2019 12:15:00 20.5 C 88 % 18.44 C
437 28-07-2019 12:20:00 20.5 C 88 % 18.44 C
438 28-07-2019 12:25:00 20.5 C 88 % 18.44 C
439 28-07-2019 12:30:00 20.4 C 87 % 18.16 C
440 28-07-2019 12:35:00 20.5 C 87 % 18.26 C
441 28-07-2019 12:40:00 20.6 C 88 % 18.54 C
442 28-07-2019 12:45:00 20.5 C 87 % 18.26 C
443 28-07-2019 12:50:00 20.5 C 87 % 18.26 C
444 28-07-2019 12:55:00 20.5 C 87 % 18.26 C
445 28-07-2019 13:00:00 20.5 C 87 % 18.26 C
446 28-07-2019 13:05:00 20.6 C 87 % 18.36 C
447 28-07-2019 13:10:00 20.5 C 86 % 18.08 C
448 28-07-2019 13:15:00 20.5 C 86 % 18.08 C
449 28-07-2019 13:20:00 20.4 C 86 % 17.98 C
450 28-07-2019 13:25:00 20.4 C 87 % 18.16 C
Sensor: Nr:Datum:Temp:Feuchte:Taupunkt:
Aussen-T/F 451 28-07-2019 13:30:00 20.4 C 87 % 18.16 C
452 28-07-2019 13:35:00 20.3 C 87 % 18.06 C
453 28-07-2019 13:40:00 20.2 C 88 % 18.15 C
454 28-07-2019 13:45:00 20.1 C 89 % 18.23 C
455 28-07-2019 13:50:00 19.9 C 89 % 18.03 C
456 28-07-2019 13:55:00 19.9 C 89 % 18.03 C
457 28-07-2019 14:00:00 19.9 C 89 % 18.03 C
458 28-07-2019 14:05:00 19.9 C 89 % 18.03 C
459 28-07-2019 14:10:00 19.9 C 90 % 18.21 C
460 28-07-2019 14:15:00 19.9 C 90 % 18.21 C
461 28-07-2019 14:20:00 19.9 C 90 % 18.21 C
462 28-07-2019 14:25:00 20 C 89 % 18.13 C
463 28-07-2019 14:30:00 20.1 C 89 % 18.23 C
464 28-07-2019 14:35:00 20.1 C 89 % 18.23 C
465 28-07-2019 14:40:00 20.1 C 89 % 18.23 C
466 28-07-2019 14:45:00 20.1 C 89 % 18.23 C
467 28-07-2019 14:50:00 20 C 89 % 18.13 C
468 28-07-2019 14:55:00 19.9 C 89 % 18.03 C
469 28-07-2019 15:00:00 20 C 89 % 18.13 C
470 28-07-2019 15:05:00 19.9 C 89 % 18.03 C
471 28-07-2019 15:10:00 19.9 C 88 % 17.85 C
472 28-07-2019 15:15:00 19.9 C 88 % 17.85 C
473 28-07-2019 15:20:00 19.9 C 89 % 18.03 C
474 28-07-2019 15:25:00 19.9 C 88 % 17.85 C
475 28-07-2019 15:30:00 19.9 C 88 % 17.85 C
Sensor: Nr:Datum:Temp:Feuchte:Taupunkt:
Aussen-T/F 476 28-07-2019 15:35:00 19.9 C 88 % 17.85 C
477 28-07-2019 15:40:00 19.9 C 88 % 17.85 C
478 28-07-2019 15:45:00 19.9 C 88 % 17.85 C
479 28-07-2019 15:50:00 19.9 C 88 % 17.85 C
480 28-07-2019 15:55:00 19.9 C 87 % 17.67 C
481 28-07-2019 16:00:00 19.9 C 88 % 17.85 C
482 28-07-2019 16:05:00 19.9 C 87 % 17.67 C
483 28-07-2019 16:10:00 19.9 C 87 % 17.67 C
484 28-07-2019 16:15:00 19.9 C 87 % 17.67 C
485 28-07-2019 16:20:00 19.8 C 87 % 17.57 C
486 28-07-2019 16:25:00 19.8 C 88 % 17.75 C
487 28-07-2019 16:30:00 19.8 C 88 % 17.75 C
488 28-07-2019 16:35:00 19.8 C 88 % 17.75 C
489 28-07-2019 16:40:00 19.8 C 88 % 17.75 C
490 28-07-2019 16:45:00 19.7 C 88 % 17.66 C
491 28-07-2019 16:50:00 19.7 C 88 % 17.66 C
492 28-07-2019 16:55:00 19.8 C 88 % 17.75 C
493 28-07-2019 17:00:00 19.7 C 88 % 17.66 C
494 28-07-2019 17:05:00 19.8 C 89 % 17.93 C
495 28-07-2019 17:10:00 19.7 C 89 % 17.84 C
496 28-07-2019 17:15:00 19.6 C 89 % 17.74 C
497 28-07-2019 17:20:00 19.4 C 89 % 17.54 C
498 28-07-2019 17:25:00 19.4 C 90 % 17.72 C
499 28-07-2019 17:30:00 19.4 C 90 % 17.72 C
500 28-07-2019 17:35:00 19.3 C 90 % 17.62 C
Sensor: Nr:Datum:Temp:Feuchte:Taupunkt:
Aussen-T/F 501 28-07-2019 17:40:00 19.3 C 90 % 17.62 C
502 28-07-2019 17:45:00 19.3 C 91 % 17.79 C
503 28-07-2019 17:50:00 19.3 C 91 % 17.79 C
504 28-07-2019 17:55:00 19.3 C 92 % 17.97 C
505 28-07-2019 18:00:00 19.2 C 91 % 17.69 C
506 28-07-2019 18:05:00 19.2 C 91 % 17.69 C
507 28-07-2019 18:10:00 19.2 C 91 % 17.69 C
508 28-07-2019 18:15:00 19.3 C 91 % 17.79 C
509 28-07-2019 18:20:00 19.2 C 90 % 17.52 C
510 28-07-2019 18:25:00 19.2 C 90 % 17.52 C
511 28-07-2019 18:30:00 19.2 C 90 % 17.52 C
512 28-07-2019 18:35:00 19.2 C 90 % 17.52 C
513 28-07-2019 18:40:00 19.1 C 90 % 17.42 C
514 28-07-2019 18:45:00 19.1 C 90 % 17.42 C
515 28-07-2019 18:50:00 19.1 C 90 % 17.42 C
516 28-07-2019 18:55:00 19.1 C 91 % 17.6 C
517 28-07-2019 19:00:00 19.1 C 91 % 17.6 C
518 28-07-2019 19:05:00 19.1 C 91 % 17.6 C
519 28-07-2019 19:10:00 19 C 91 % 17.5 C
520 28-07-2019 19:15:00 18.9 C 91 % 17.4 C
521 28-07-2019 19:20:00 18.9 C 91 % 17.4 C
522 28-07-2019 19:25:00 18.9 C 92 % 17.57 C
523 28-07-2019 19:30:00 18.9 C 92 % 17.57 C
524 28-07-2019 19:35:00 18.8 C 92 % 17.47 C
525 28-07-2019 19:40:00 18.8 C 92 % 17.47 C
Sensor: Nr:Datum:Temp:Feuchte:Taupunkt:
Aussen-T/F 526 28-07-2019 19:45:00 18.7 C 92 % 17.37 C
527 28-07-2019 19:50:00 18.7 C 92 % 17.37 C
528 28-07-2019 19:55:00 18.7 C 92 % 17.37 C
529 28-07-2019 20:00:00 18.7 C 92 % 17.37 C
530 28-07-2019 20:05:00 18.7 C 92 % 17.37 C
531 28-07-2019 20:10:00 18.6 C 92 % 17.27 C
532 28-07-2019 20:15:00 18.6 C 93 % 17.45 C
533 28-07-2019 20:20:00 18.6 C 93 % 17.45 C
534 28-07-2019 20:25:00 18.6 C 93 % 17.45 C
535 28-07-2019 20:30:00 18.5 C 93 % 17.35 C
536 28-07-2019 20:35:00 18.4 C 93 % 17.25 C
537 28-07-2019 20:40:00 18.4 C 93 % 17.25 C
538 28-07-2019 20:45:00 18.3 C 93 % 17.15 C
539 28-07-2019 20:50:00 18.3 C 93 % 17.15 C
540 28-07-2019 20:55:00 18.3 C 93 % 17.15 C
541 28-07-2019 21:00:00 18.2 C 93 % 17.05 C
542 28-07-2019 21:05:00 18.2 C 93 % 17.05 C
543 28-07-2019 21:10:00 18.2 C 94 % 17.22 C
544 28-07-2019 21:15:00 18.2 C 94 % 17.22 C
545 28-07-2019 21:20:00 18.2 C 94 % 17.22 C
546 28-07-2019 21:25:00 18.2 C 94 % 17.22 C
547 28-07-2019 21:30:00 18.2 C 94 % 17.22 C
548 28-07-2019 21:35:00 18.2 C 94 % 17.22 C
549 28-07-2019 21:40:00 18.2 C 94 % 17.22 C
550 28-07-2019 21:45:00 18.1 C 94 % 17.12 C
Sensor: Nr:Datum:Temp:Feuchte:Taupunkt:
Aussen-T/F 551 28-07-2019 21:50:00 18.1 C 94 % 17.12 C
552 28-07-2019 21:55:00 18.1 C 94 % 17.12 C
553 28-07-2019 22:00:00 18.1 C 94 % 17.12 C
554 28-07-2019 22:05:00 18.1 C 94 % 17.12 C
555 28-07-2019 22:10:00 18 C 94 % 17.02 C
556 28-07-2019 22:15:00 17.9 C 95 % 17.09 C
557 28-07-2019 22:20:00 17.9 C 95 % 17.09 C
558 28-07-2019 22:25:00 17.9 C 95 % 17.09 C
559 28-07-2019 22:30:00 17.9 C 95 % 17.09 C
560 28-07-2019 22:35:00 17.9 C 95 % 17.09 C
561 28-07-2019 22:40:00 17.8 C 95 % 16.99 C
562 28-07-2019 22:45:00 17.8 C 95 % 16.99 C
563 28-07-2019 22:50:00 17.8 C 95 % 16.99 C
564 28-07-2019 22:55:00 17.8 C 95 % 16.99 C
565 28-07-2019 23:00:00 17.7 C 95 % 16.89 C
566 28-07-2019 23:05:00 17.7 C 95 % 16.89 C
567 28-07-2019 23:10:00 17.7 C 95 % 16.89 C
568 28-07-2019 23:15:00 17.7 C 95 % 16.89 C
569 28-07-2019 23:20:00 17.7 C 95 % 16.89 C
570 28-07-2019 23:25:00 17.6 C 95 % 16.79 C
571 28-07-2019 23:30:00 17.6 C 95 % 16.79 C
572 28-07-2019 23:35:00 17.6 C 95 % 16.79 C
573 28-07-2019 23:40:00 17.5 C 95 % 16.69 C
574 28-07-2019 23:45:00 17.5 C 95 % 16.69 C
575 28-07-2019 23:50:00 17.4 C 95 % 16.59 C
Sensor: Nr:Datum:Temp:Feuchte:Taupunkt:
Aussen-T/F 576 28-07-2019 23:55:00 17.5 C 95 % 16.69 C
577 29-07-2019 00:00:00 17.4 C 95 % 16.59 C
578 29-07-2019 00:05:00 17.4 C 95 % 16.59 C
579 29-07-2019 00:10:00 17.4 C 95 % 16.59 C
580 29-07-2019 00:15:00 17.4 C 95 % 16.59 C
581 29-07-2019 00:20:00 17.4 C 95 % 16.59 C
582 29-07-2019 00:25:00 17.4 C 95 % 16.59 C
583 29-07-2019 00:30:00 17.3 C 95 % 16.49 C
584 29-07-2019 00:35:00 17.3 C 95 % 16.49 C
585 29-07-2019 00:40:00 17.3 C 95 % 16.49 C
586 29-07-2019 00:45:00 17.2 C 95 % 16.39 C
587 29-07-2019 00:50:00 17.2 C 95 % 16.39 C
588 29-07-2019 00:55:00 17.2 C 95 % 16.39 C
589 29-07-2019 01:00:00 17.1 C 95 % 16.29 C
590 29-07-2019 01:05:00 17.2 C 95 % 16.39 C
591 29-07-2019 01:10:00 17.1 C 95 % 16.29 C
592 29-07-2019 01:15:00 17.1 C 95 % 16.29 C
593 29-07-2019 01:20:00 17.1 C 95 % 16.29 C
594 29-07-2019 01:25:00 17.1 C 95 % 16.29 C
595 29-07-2019 01:30:00 17.1 C 95 % 16.29 C
596 29-07-2019 01:35:00 17.1 C 95 % 16.29 C
597 29-07-2019 01:40:00 17.1 C 95 % 16.29 C
598 29-07-2019 01:45:00 17.1 C 95 % 16.29 C
599 29-07-2019 01:50:00 17.1 C 95 % 16.29 C
600 29-07-2019 01:55:00 17.1 C 95 % 16.29 C
Sensor: Nr:Datum:Temp:Feuchte:Taupunkt:
Aussen-T/F 601 29-07-2019 02:00:00 17.1 C 95 % 16.29 C
602 29-07-2019 02:05:00 17 C 95 % 16.19 C
603 29-07-2019 02:10:00 17 C 95 % 16.19 C
604 29-07-2019 02:15:00 17 C 96 % 16.36 C
605 29-07-2019 02:20:00 17 C 96 % 16.36 C
606 29-07-2019 02:25:00 17 C 96 % 16.36 C
607 29-07-2019 02:30:00 17 C 96 % 16.36 C
608 29-07-2019 02:35:00 17 C 96 % 16.36 C
609 29-07-2019 02:40:00 16.9 C 96 % 16.26 C
610 29-07-2019 02:45:00 16.9 C 96 % 16.26 C
611 29-07-2019 02:50:00 16.9 C 96 % 16.26 C
612 29-07-2019 02:55:00 16.9 C 96 % 16.26 C
613 29-07-2019 03:00:00 16.9 C 96 % 16.26 C
614 29-07-2019 03:05:00 16.9 C 96 % 16.26 C
615 29-07-2019 03:10:00 16.9 C 96 % 16.26 C
616 29-07-2019 03:15:00 16.9 C 96 % 16.26 C
617 29-07-2019 03:20:00 16.9 C 96 % 16.26 C
618 29-07-2019 03:25:00 16.8 C 96 % 16.16 C
619 29-07-2019 03:30:00 16.8 C 96 % 16.16 C
620 29-07-2019 03:35:00 16.8 C 96 % 16.16 C
621 29-07-2019 03:40:00 16.8 C 96 % 16.16 C
622 29-07-2019 03:45:00 16.8 C 96 % 16.16 C
623 29-07-2019 03:50:00 16.8 C 96 % 16.16 C
624 29-07-2019 03:55:00 16.8 C 96 % 16.16 C
625 29-07-2019 04:00:00 16.9 C 96 % 16.26 C
Sensor: Nr:Datum:Temp:Feuchte:Taupunkt:
Aussen-T/F 626 29-07-2019 04:05:00 16.8 C 96 % 16.16 C
627 29-07-2019 04:10:00 16.8 C 96 % 16.16 C
628 29-07-2019 04:15:00 16.8 C 96 % 16.16 C
629 29-07-2019 04:20:00 16.8 C 96 % 16.16 C
630 29-07-2019 04:25:00 16.8 C 96 % 16.16 C
631 29-07-2019 04:30:00 16.8 C 96 % 16.16 C
632 29-07-2019 04:35:00 16.8 C 96 % 16.16 C
633 29-07-2019 04:40:00 16.8 C 96 % 16.16 C
634 29-07-2019 04:45:00 16.8 C 96 % 16.16 C
635 29-07-2019 04:50:00 16.8 C 96 % 16.16 C
636 29-07-2019 04:55:00 16.8 C 96 % 16.16 C
637 29-07-2019 05:00:00 16.8 C 96 % 16.16 C
638 29-07-2019 05:05:00 16.8 C 96 % 16.16 C
639 29-07-2019 05:10:00 16.8 C 96 % 16.16 C
640 29-07-2019 05:15:00 16.8 C 96 % 16.16 C
641 29-07-2019 05:20:00 16.8 C 96 % 16.16 C
642 29-07-2019 05:25:00 16.7 C 96 % 16.06 C
643 29-07-2019 05:30:00 16.7 C 96 % 16.06 C
644 29-07-2019 05:35:00 16.7 C 96 % 16.06 C
645 29-07-2019 05:40:00 16.7 C 96 % 16.06 C
646 29-07-2019 05:45:00 16.7 C 96 % 16.06 C
647 29-07-2019 05:50:00 16.7 C 96 % 16.06 C
648 29-07-2019 05:55:00 16.7 C 96 % 16.06 C
649 29-07-2019 06:00:00 16.7 C 96 % 16.06 C
650 29-07-2019 06:05:00 16.7 C 96 % 16.06 C
Sensor: Nr:Datum:Temp:Feuchte:Taupunkt:
Aussen-T/F 651 29-07-2019 06:10:00 16.7 C 96 % 16.06 C
652 29-07-2019 06:15:00 16.7 C 96 % 16.06 C
653 29-07-2019 06:20:00 16.7 C 96 % 16.06 C
654 29-07-2019 06:25:00 16.7 C 96 % 16.06 C
655 29-07-2019 06:30:00 16.7 C 96 % 16.06 C
656 29-07-2019 06:35:00 16.7 C 96 % 16.06 C
657 29-07-2019 06:40:00 16.7 C 96 % 16.06 C
658 29-07-2019 06:45:00 16.8 C 96 % 16.16 C
659 29-07-2019 06:50:00 16.8 C 96 % 16.16 C
660 29-07-2019 06:55:00 16.8 C 96 % 16.16 C
661 29-07-2019 07:00:00 16.9 C 96 % 16.26 C
662 29-07-2019 07:05:00 16.9 C 96 % 16.26 C
663 29-07-2019 07:10:00 16.9 C 96 % 16.26 C
664 29-07-2019 07:15:00 17 C 96 % 16.36 C
665 29-07-2019 07:20:00 17.1 C 96 % 16.46 C
666 29-07-2019 07:25:00 17.1 C 96 % 16.46 C
667 29-07-2019 07:30:00 16.9 C 96 % 16.26 C
668 29-07-2019 07:35:00 16.9 C 96 % 16.26 C
669 29-07-2019 07:40:00 17 C 96 % 16.36 C
670 29-07-2019 07:45:00 17 C 95 % 16.19 C
671 29-07-2019 07:50:00 17.1 C 95 % 16.29 C
672 29-07-2019 07:55:00 17.1 C 95 % 16.29 C
673 29-07-2019 08:00:00 17.2 C 95 % 16.39 C
674 29-07-2019 08:05:00 17.2 C 94 % 16.23 C
675 29-07-2019 08:10:00 17.3 C 94 % 16.33 C
Sensor: Nr:Datum:Temp:Feuchte:Taupunkt:
Aussen-T/F 676 29-07-2019 08:15:00 17.3 C 93 % 16.16 C
677 29-07-2019 08:20:00 17.4 C 94 % 16.42 C
678 29-07-2019 08:25:00 17.4 C 93 % 16.26 C
679 29-07-2019 08:30:00 17.4 C 92 % 16.09 C
680 29-07-2019 08:35:00 17.6 C 92 % 16.28 C
681 29-07-2019 08:40:00 17.6 C 92 % 16.28 C
682 29-07-2019 08:45:00 17.6 C 91 % 16.11 C
683 29-07-2019 08:50:00 17.7 C 90 % 16.04 C
684 29-07-2019 08:55:00 17.9 C 91 % 16.41 C
685 29-07-2019 09:00:00 18 C 90 % 16.34 C
686 29-07-2019 09:05:00 18.2 C 90 % 16.53 C
687 29-07-2019 09:10:00 18.2 C 88 % 16.18 C
688 29-07-2019 09:15:00 18.3 C 88 % 16.28 C
689 29-07-2019 09:20:00 18.3 C 88 % 16.28 C
690 29-07-2019 09:25:00 18.4 C 87 % 16.2 C
691 29-07-2019 09:30:00 18.6 C 86 % 16.21 C
692 29-07-2019 09:35:00 18.7 C 86 % 16.31 C
693 29-07-2019 09:40:00 18.8 C 84 % 16.04 C
694 29-07-2019 09:45:00 18.8 C 83 % 15.85 C
695 29-07-2019 09:50:00 18.8 C 83 % 15.85 C
696 29-07-2019 09:55:00 18.8 C 83 % 15.85 C
697 29-07-2019 10:00:00 18.8 C 82 % 15.66 C
698 29-07-2019 10:05:00 18.8 C 83 % 15.85 C
699 29-07-2019 10:10:00 18.9 C 83 % 15.95 C
700 29-07-2019 10:15:00 19.1 C 81 % 15.76 C
Sensor: Nr:Datum:Temp:Feuchte:Taupunkt:
Aussen-T/F 701 29-07-2019 10:20:00 19.3 C 80 % 15.76 C
702 29-07-2019 10:25:00 19.4 C 79 % 15.66 C
703 29-07-2019 10:30:00 19.5 C 79 % 15.76 C
704 29-07-2019 10:35:00 19.7 C 79 % 15.96 C
705 29-07-2019 10:40:00 19.7 C 77 % 15.56 C
706 29-07-2019 10:45:00 19.8 C 78 % 15.85 C
707 29-07-2019 10:50:00 19.8 C 76 % 15.45 C
708 29-07-2019 10:55:00 19.9 C 75 % 15.34 C
709 29-07-2019 11:00:00 19.9 C 75 % 15.34 C
710 29-07-2019 11:05:00 20 C 76 % 15.64 C
711 29-07-2019 11:10:00 20 C 75 % 15.43 C
712 29-07-2019 11:15:00 20.1 C 75 % 15.53 C
713 29-07-2019 11:20:00 20.2 C 75 % 15.63 C
714 29-07-2019 11:25:00 20.3 C 76 % 15.93 C
715 29-07-2019 11:30:00 20.4 C 74 % 15.61 C
716 29-07-2019 11:35:00 20.6 C 73 % 15.59 C
717 29-07-2019 11:40:00 20.8 C 72 % 15.57 C
718 29-07-2019 11:45:00 21 C 72 % 15.76 C
719 29-07-2019 11:50:00 21.2 C 72 % 15.95 C
720 29-07-2019 11:55:00 21.2 C 70 % 15.51 C
721 29-07-2019 12:00:00 21.4 C 68 % 15.25 C
722 29-07-2019 12:05:00 21.5 C 67 % 15.12 C
723 29-07-2019 12:10:00 21.6 C 69 % 15.67 C
724 29-07-2019 12:15:00 21.6 C 68 % 15.44 C
725 29-07-2019 12:20:00 21.8 C 68 % 15.63 C
Sensor: Nr:Datum:Temp:Feuchte:Taupunkt:
Aussen-T/F 726 29-07-2019 12:25:00 21.9 C 66 % 15.26 C
727 29-07-2019 12:30:00 22.1 C 66 % 15.45 C
728 29-07-2019 12:35:00 22.1 C 65 % 15.21 C
729 29-07-2019 12:40:00 22.2 C 66 % 15.55 C
730 29-07-2019 12:45:00 22.3 C 65 % 15.4 C
731 29-07-2019 12:50:00 22.4 C 65 % 15.5 C
732 29-07-2019 12:55:00 22.5 C 64 % 15.35 C
733 29-07-2019 13:00:00 22.6 C 65 % 15.69 C
734 29-07-2019 13:05:00 22.7 C 63 % 15.3 C
735 29-07-2019 13:10:00 22.8 C 64 % 15.64 C
736 29-07-2019 13:15:00 23 C 61 % 15.08 C
737 29-07-2019 13:20:00 23.2 C 61 % 15.26 C
738 29-07-2019 13:25:00 23.3 C 62 % 15.61 C
739 29-07-2019 13:30:00 23.5 C 61 % 15.55 C
740 29-07-2019 13:35:00 23.6 C 62 % 15.89 C
741 29-07-2019 13:40:00 23.5 C 62 % 15.8 C
742 29-07-2019 13:45:00 23.5 C 62 % 15.8 C
743 29-07-2019 13:50:00 23.6 C 61 % 15.64 C
744 29-07-2019 13:55:00 23.7 C 60 % 15.48 C
745 29-07-2019 14:00:00 23.7 C 60 % 15.48 C
746 29-07-2019 14:05:00 23.8 C 60 % 15.57 C
747 29-07-2019 14:10:00 23.9 C 61 % 15.92 C
748 29-07-2019 14:15:00 24.2 C 59 % 15.68 C
749 29-07-2019 14:20:00 24.4 C 58 % 15.6 C
750 29-07-2019 14:25:00 24.5 C 58 % 15.7 C
Sensor: Nr:Datum:Temp:Feuchte:Taupunkt:
Aussen-T/F 751 29-07-2019 14:30:00 24.7 C 56 % 15.33 C
752 29-07-2019 14:35:00 24.7 C 57 % 15.61 C
753 29-07-2019 14:40:00 24.7 C 57 % 15.61 C
754 29-07-2019 14:45:00 24.8 C 54 % 14.86 C
755 29-07-2019 14:50:00 24.8 C 55 % 15.15 C
756 29-07-2019 14:55:00 24.8 C 55 % 15.15 C
757 29-07-2019 15:00:00 24.8 C 54 % 14.86 C
758 29-07-2019 15:05:00 24.9 C 54 % 14.95 C
759 29-07-2019 15:10:00 25.1 C 54 % 15.14 C
760 29-07-2019 15:15:00 25.4 C 53 % 15.13 C
761 29-07-2019 15:20:00 25.6 C 52 % 15.02 C
762 29-07-2019 15:25:00 25.7 C 51 % 14.81 C
763 29-07-2019 15:30:00 25.9 C 51 % 14.99 C
764 29-07-2019 15:35:00 26.1 C 51 % 15.17 C
765 29-07-2019 15:40:00 26.1 C 50 % 14.87 C
766 29-07-2019 15:45:00 26.4 C 50 % 15.14 C
767 29-07-2019 15:50:00 26.8 C 49 % 15.19 C
768 29-07-2019 15:55:00 27.2 C 48 % 15.24 C
769 29-07-2019 16:00:00 27.3 C 47 % 15 C
770 29-07-2019 16:05:00 27.4 C 47 % 15.09 C
771 29-07-2019 16:10:00 27.6 C 46 % 14.94 C
772 29-07-2019 16:15:00 27.3 C 47 % 15 C
773 29-07-2019 16:20:00 27.2 C 47 % 14.91 C
774 29-07-2019 16:25:00 27.2 C 46 % 14.58 C
775 29-07-2019 16:30:00 27.3 C 47 % 15 C
Sensor: Nr:Datum:Temp:Feuchte:Taupunkt:
Aussen-T/F 776 29-07-2019 16:35:00 27.7 C 45 % 14.69 C
777 29-07-2019 16:40:00 27.9 C 45 % 14.87 C
778 29-07-2019 16:45:00 28.2 C 44 % 14.79 C
779 29-07-2019 16:50:00 28.2 C 44 % 14.79 C
780 29-07-2019 16:55:00 27.9 C 44 % 14.52 C
781 29-07-2019 17:00:00 27.9 C 45 % 14.87 C
782 29-07-2019 17:05:00 28 C 45 % 14.96 C
783 29-07-2019 17:10:00 28.3 C 44 % 14.88 C
784 29-07-2019 17:15:00 28.4 C 43 % 14.62 C
785 29-07-2019 17:20:00 28.3 C 42 % 14.16 C
786 29-07-2019 17:25:00 28.4 C 43 % 14.62 C
787 29-07-2019 17:30:00 28.4 C 42 % 14.25 C
788 29-07-2019 17:35:00 28.4 C 43 % 14.62 C
789 29-07-2019 17:40:00 28.6 C 43 % 14.8 C
790 29-07-2019 17:45:00 28.3 C 43 % 14.53 C
791 29-07-2019 17:50:00 28.1 C 43 % 14.35 C
792 29-07-2019 17:55:00 27.7 C 43 % 13.99 C
793 29-07-2019 18:00:00 27.4 C 44 % 14.07 C
794 29-07-2019 18:05:00 27.2 C 44 % 13.89 C
795 29-07-2019 18:10:00 27.1 C 45 % 14.15 C
796 29-07-2019 18:15:00 27.3 C 45 % 14.33 C
797 29-07-2019 18:20:00 27.4 C 44 % 14.07 C
798 29-07-2019 18:25:00 27.4 C 44 % 14.07 C
799 29-07-2019 18:30:00 27.4 C 44 % 14.07 C
800 29-07-2019 18:35:00 27.7 C 44 % 14.34 C
Sensor: Nr:Datum:Temp:Feuchte:Taupunkt:
Aussen-T/F 801 29-07-2019 18:40:00 28 C 43 % 14.26 C
802 29-07-2019 18:45:00 28.3 C 42 % 14.16 C
803 29-07-2019 18:50:00 28.6 C 42 % 14.43 C
804 29-07-2019 18:55:00 28.7 C 41 % 14.15 C
805 29-07-2019 19:00:00 28.8 C 41 % 14.24 C
806 29-07-2019 19:05:00 28.9 C 42 % 14.7 C
807 29-07-2019 19:10:00 28.9 C 41 % 14.33 C
808 29-07-2019 19:15:00 28.8 C 41 % 14.24 C
809 29-07-2019 19:20:00 28.6 C 42 % 14.43 C
810 29-07-2019 19:25:00 28.1 C 43 % 14.35 C
811 29-07-2019 19:30:00 27.9 C 44 % 14.52 C
812 29-07-2019 19:35:00 27.7 C 44 % 14.34 C
813 29-07-2019 19:40:00 27.6 C 45 % 14.6 C
814 29-07-2019 19:45:00 27.4 C 46 % 14.76 C
815 29-07-2019 19:50:00 27.3 C 45 % 14.33 C
816 29-07-2019 19:55:00 27.2 C 46 % 14.58 C
817 29-07-2019 20:00:00 27.1 C 46 % 14.49 C
818 29-07-2019 20:05:00 27 C 47 % 14.73 C
819 29-07-2019 20:10:00 26.8 C 47 % 14.55 C
820 29-07-2019 20:15:00 26.6 C 48 % 14.69 C
821 29-07-2019 20:20:00 26.4 C 49 % 14.83 C
822 29-07-2019 20:25:00 26.3 C 49 % 14.74 C
823 29-07-2019 20:30:00 26.3 C 50 % 15.05 C
824 29-07-2019 20:35:00 26.2 C 50 % 14.96 C
825 29-07-2019 20:40:00 26 C 50 % 14.77 C
Sensor: Nr:Datum:Temp:Feuchte:Taupunkt:
Aussen-T/F 826 29-07-2019 20:45:00 25.9 C 51 % 14.99 C
827 29-07-2019 20:50:00 25.8 C 51 % 14.9 C
828 29-07-2019 20:55:00 25.6 C 52 % 15.02 C
829 29-07-2019 21:00:00 25.3 C 55 % 15.61 C
830 29-07-2019 21:05:00 24.9 C 56 % 15.52 C
831 29-07-2019 21:10:00 24.5 C 59 % 15.96 C
832 29-07-2019 21:15:00 24 C 59 % 15.5 C
833 29-07-2019 21:20:00 23.5 C 60 % 15.29 C
834 29-07-2019 21:25:00 23 C 61 % 15.08 C
835 29-07-2019 21:30:00 22.6 C 63 % 15.2 C
836 29-07-2019 21:35:00 22.2 C 64 % 15.07 C
837 29-07-2019 21:40:00 21.9 C 65 % 15.02 C
838 29-07-2019 21:45:00 21.8 C 66 % 15.17 C
839 29-07-2019 21:50:00 21.6 C 66 % 14.98 C
840 29-07-2019 21:55:00 21.4 C 66 % 14.79 C
841 29-07-2019 22:00:00 21.3 C 67 % 14.93 C
842 29-07-2019 22:05:00 21.2 C 68 % 15.06 C
843 29-07-2019 22:10:00 21.1 C 68 % 14.97 C
844 29-07-2019 22:15:00 21 C 68 % 14.87 C
845 29-07-2019 22:20:00 20.9 C 68 % 14.77 C
846 29-07-2019 22:25:00 20.8 C 69 % 14.91 C
847 29-07-2019 22:30:00 20.8 C 70 % 15.13 C
848 29-07-2019 22:35:00 20.7 C 71 % 15.25 C
849 29-07-2019 22:40:00 20.6 C 71 % 15.16 C
850 29-07-2019 22:45:00 20.4 C 71 % 14.97 C
Sensor: Nr:Datum:Temp:Feuchte:Taupunkt:
Aussen-T/F 851 29-07-2019 22:50:00 20.2 C 72 % 14.99 C
852 29-07-2019 22:55:00 20.1 C 73 % 15.11 C
853 29-07-2019 23:00:00 20 C 73 % 15.01 C
854 29-07-2019 23:05:00 19.9 C 73 % 14.92 C
855 29-07-2019 23:10:00 19.8 C 74 % 15.03 C
856 29-07-2019 23:15:00 19.7 C 75 % 15.15 C
857 29-07-2019 23:20:00 19.6 C 75 % 15.05 C
858 29-07-2019 23:25:00 19.4 C 75 % 14.86 C
859 29-07-2019 23:30:00 19.3 C 76 % 14.97 C
860 29-07-2019 23:35:00 19.1 C 76 % 14.77 C
861 29-07-2019 23:40:00 19 C 77 % 14.88 C
862 29-07-2019 23:45:00 18.8 C 77 % 14.68 C
863 29-07-2019 23:50:00 18.8 C 78 % 14.88 C
864 29-07-2019 23:55:00 18.7 C 78 % 14.79 C

Legende:
   Min
   Max


Maximal/Minimal-Werte vom 27.07.2019 - 29.07.2019

Sensor Min Max Avg
Temp
(Aussen-T/F)
16.7 °C
29-07-2019  05:25:00
28.9 °C
29-07-2019  19:05:00
21.41 °C
Feuchte
(Aussen-T/F)
41 %
29-07-2019  18:55:00
96 %
29-07-2019  02:15:00
81.38 %
Taupunkt
(Aussen-T/F)
13.89 C
29-07-2019  18:05:00
22.08 C
27-07-2019  11:20:00
17.75 C

Die Daten stammen von einer Davis Vantage Pro 2 Wetter-Station und werden unter Linux mit der Software wview2wettercgi und aufbereitet. Alle Angaben erfolgen ohne Gewähr für ihre Vollständigkeit oder Richtigkeit.
Kontakt: Rainer Krienke krienke@uni-koblenz.de . Meine Webseiten an der Uni Koblenz oder privat.
Version: $Revision: 0.78 $